Time;durP1;ratioP1;P1;durP2;ratioP2;P2;SDS_P1;SDS_P2;PMS_P1;PMS_P2;Temp;Humidity;BMP_temperature;BMP_pressure;BME280_temperature;BME280_humidity;BME280_pressure;Samples;Min_cycle;Max_cycle;Signal;HPM_P1;HPM_P2
2023/06/29 00:00:41;;;;;;;4.97;2.93;;;22.90;63.50;;;;;;5014710;28;20714;-72
2023/06/29 00:03:11;;;;;;;3.77;2.80;;;22.90;63.60;;;;;;5015128;28;20195;-72
2023/06/29 00:05:41;;;;;;;3.37;2.73;;;22.90;63.80;;;;;;5031198;28;20233;-71
2023/06/29 00:08:10;;;;;;;3.97;2.97;;;22.80;63.80;;;;;;5018205;28;20215;-71
2023/06/29 00:10:37;;;;;;;3.03;2.50;;;22.80;63.90;;;;;;5014168;28;20671;-71
2023/06/29 00:13:04;;;;;;;2.83;2.53;;;22.80;64.10;;;;;;5014748;28;20230;-71
2023/06/29 00:15:31;;;;;;;3.90;2.80;;;22.70;64.20;;;;;;5014297;28;20215;-72
2023/06/29 00:17:59;;;;;;;2.93;2.73;;;22.70;64.10;;;;;;5014742;28;20234;-72
2023/06/29 00:20:28;;;;;;;4.00;3.00;;;22.70;64.20;;;;;;5026771;28;20240;-72
2023/06/29 00:22:55;;;;;;;3.37;2.90;;;22.70;64.40;;;;;;5034622;28;20292;-71
2023/06/29 00:25:24;;;;;;;3.47;2.77;;;22.60;64.30;;;;;;5033924;28;20229;-70
2023/06/29 00:27:51;;;;;;;4.90;2.70;;;22.60;64.40;;;;;;5033831;28;20301;-71
2023/06/29 00:30:18;;;;;;;3.77;2.70;;;22.60;64.20;;;;;;5017837;28;20231;-72
2023/06/29 00:32:46;;;;;;;3.93;2.90;;;22.50;64.10;;;;;;5027690;28;20226;-71
2023/06/29 00:35:14;;;;;;;4.20;2.93;;;22.50;64.20;;;;;;5034263;28;20206;-71
2023/06/29 00:37:42;;;;;;;3.63;2.60;;;22.50;64.20;;;;;;5034482;28;20206;-71
2023/06/29 00:40:10;;;;;;;3.77;2.80;;;22.50;64.40;;;;;;5015813;28;20698;-70
2023/06/29 00:42:38;;;;;;;5.50;2.60;;;22.40;64.50;;;;;;5020767;28;20230;-72
2023/06/29 00:45:06;;;;;;;3.30;3.00;;;22.40;65.50;;;;;;5033111;28;20206;-72
2023/06/29 00:47:34;;;;;;;3.23;2.90;;;22.40;64.70;;;;;;5019883;28;20221;-72
2023/06/29 00:50:01;;;;;;;3.80;3.30;;;22.30;64.90;;;;;;5019197;28;20706;-72
2023/06/29 00:52:30;;;;;;;2.97;2.63;;;22.30;65.00;;;;;;5026199;28;20206;-73
2023/06/29 00:54:57;;;;;;;3.63;2.97;;;22.30;65.20;;;;;;5029110;28;20213;-73
2023/06/29 00:57:24;;;;;;;4.77;2.70;;;22.30;65.20;;;;;;5019283;28;20219;-72
2023/06/29 00:59:52;;;;;;;3.70;3.03;;;22.30;65.00;;;;;;5026774;28;20195;-72
2023/06/29 01:02:20;;;;;;;3.80;2.83;;;22.20;65.00;;;;;;5016704;28;20244;-71
2023/06/29 01:04:47;;;;;;;3.20;2.90;;;22.20;65.00;;;;;;5033057;28;20666;-72
2023/06/29 01:07:18;;;;;;;2.90;2.60;;;22.10;65.00;;;;;;5018074;28;20239;-72
2023/06/29 01:09:47;;;;;;;3.17;2.87;;;22.10;65.10;;;;;;5022547;28;20203;-72
2023/06/29 01:12:14;;;;;;;4.13;2.97;;;22.00;65.00;;;;;;5014782;28;20211;-72
2023/06/29 01:14:44;;;;;;;3.40;3.10;;;22.00;65.10;;;;;;5028899;28;20226;-71
2023/06/29 01:17:16;;;;;;;3.43;3.00;;;22.00;65.30;;;;;;5031620;28;20214;-71
2023/06/29 01:19:46;;;;;;;4.57;3.00;;;21.90;65.40;;;;;;5015403;28;20234;-72
2023/06/29 01:22:19;;;;;;;3.90;2.90;;;22.00;65.60;;;;;;5025918;28;20229;-72
2023/06/29 01:24:48;;;;;;;3.90;3.00;;;21.90;65.60;;;;;;5033480;28;20203;-71
2023/06/29 01:27:15;;;;;;;5.77;3.30;;;21.90;65.70;;;;;;5033185;28;20222;-72
2023/06/29 01:29:42;;;;;;;4.47;3.07;;;21.90;65.80;;;;;;5033452;28;20207;-72
2023/06/29 01:32:10;;;;;;;5.27;2.90;;;21.80;66.00;;;;;;5032784;28;20643;-72
2023/06/29 01:34:38;;;;;;;3.33;3.03;;;21.80;66.20;;;;;;5033706;28;20210;-72
2023/06/29 01:37:10;;;;;;;3.50;3.20;;;21.70;66.10;;;;;;5032998;28;20231;-71
2023/06/29 01:39:44;;;;;;;3.47;3.17;;;21.60;66.40;;;;;;5033795;28;20226;-71
2023/06/29 01:42:13;;;;;;;5.57;3.03;;;21.60;66.70;;;;;;5017573;28;20194;-72
2023/06/29 01:44:40;;;;;;;3.30;2.93;;;21.50;66.60;;;;;;5030776;28;20298;-70
2023/06/29 01:47:09;;;;;;;4.33;3.10;;;21.50;66.40;;;;;;5015804;28;20205;-72
2023/06/29 01:49:38;;;;;;;5.20;2.73;;;21.50;66.60;;;;;;5026502;28;20218;-72
2023/06/29 01:52:06;;;;;;;5.00;2.80;;;21.50;66.70;;;;;;5017892;28;20227;-72
2023/06/29 01:54:33;;;;;;;3.33;3.03;;;21.50;66.70;;;;;;5021296;28;20213;-72
2023/06/29 01:57:00;;;;;;;5.03;3.37;;;21.40;66.70;;;;;;5025719;28;20218;-72
2023/06/29 01:59:29;;;;;;;3.10;2.80;;;21.40;66.80;;;;;;5031822;28;20202;-71
2023/06/29 02:01:55;;;;;;;4.10;3.33;;;21.50;66.90;;;;;;5023041;28;20210;-71
2023/06/29 02:04:22;;;;;;;4.10;3.20;;;21.40;66.80;;;;;;5029081;28;20740;-71
2023/06/29 02:06:49;;;;;;;3.30;3.00;;;21.40;66.70;;;;;;5012862;28;20215;-72
2023/06/29 02:09:16;;;;;;;3.70;3.30;;;21.40;66.60;;;;;;5024129;28;20210;-71
2023/06/29 02:11:43;;;;;;;3.43;3.00;;;21.40;66.50;;;;;;5029257;28;20202;-72
2023/06/29 02:14:10;;;;;;;4.27;2.90;;;21.40;66.80;;;;;;5020762;28;20218;-71
2023/06/29 02:16:39;;;;;;;3.87;3.27;;;21.40;67.00;;;;;;5012715;28;20238;-72
2023/06/29 02:19:06;;;;;;;3.63;2.90;;;21.40;67.30;;;;;;5030387;28;20216;-72
2023/06/29 02:21:33;;;;;;;3.50;3.17;;;21.30;67.10;;;;;;5031487;28;20205;-72
2023/06/29 02:23:59;;;;;;;3.17;2.80;;;21.40;67.20;;;;;;5028702;28;20222;-72
2023/06/29 02:26:26;;;;;;;3.93;2.73;;;21.30;67.00;;;;;;5028678;28;20211;-72
2023/06/29 02:28:53;;;;;;;4.60;2.80;;;21.30;66.90;;;;;;5022917;28;20265;-72
2023/06/29 02:31:20;;;;;;;3.40;3.10;;;21.30;66.90;;;;;;5012566;28;20235;-72
2023/06/29 02:33:49;;;;;;;3.20;2.90;;;21.30;67.00;;;;;;5028486;28;20210;-71
2023/06/29 02:36:18;;;;;;;3.53;3.20;;;21.20;67.00;;;;;;5025862;28;20300;-72
2023/06/29 02:38:45;;;;;;;3.53;3.20;;;21.20;67.00;;;;;;5024521;28;20282;-72
2023/06/29 02:41:11;;;;;;;4.20;3.00;;;21.20;67.00;;;;;;5027410;28;20198;-71
2023/06/29 02:43:38;;;;;;;3.20;2.87;;;21.20;67.10;;;;;;5028953;28;20674;-72
2023/06/29 02:46:05;;;;;;;4.37;3.10;;;21.10;67.00;;;;;;5018993;28;20210;-71
2023/06/29 02:48:32;;;;;;;3.27;2.67;;;21.10;67.00;;;;;;5052720;28;20263;-71
2023/06/29 02:51:00;;;;;;;4.43;3.10;;;21.10;67.10;;;;;;5046630;28;20221;-72
2023/06/29 02:53:27;;;;;;;3.13;2.83;;;21.10;67.30;;;;;;5036074;28;20260;-72
2023/06/29 02:55:54;;;;;;;4.37;3.90;;;21.00;67.30;;;;;;5045148;28;20222;-71
2023/06/29 02:58:20;;;;;;;4.77;3.23;;;21.00;67.40;;;;;;5037233;28;20187;-71
2023/06/29 03:00:47;;;;;;;3.50;3.20;;;21.00;67.30;;;;;;5046951;28;20221;-72
2023/06/29 03:03:14;;;;;;;3.83;3.40;;;21.00;67.50;;;;;;5036042;28;20239;-72
2023/06/29 03:05:41;;;;;;;3.73;3.43;;;20.90;67.50;;;;;;5043247;28;20203;-71
2023/06/29 03:08:09;;;;;;;6.73;3.97;;;20.90;67.70;;;;;;5055750;28;20266;-71
2023/06/29 03:10:36;;;;;;;3.80;3.50;;;20.90;68.00;;;;;;5045090;28;20219;-71
2023/06/29 03:13:03;;;;;;;3.83;3.10;;;20.90;68.90;;;;;;5052841;28;20258;-72
2023/06/29 03:15:30;;;;;;;3.63;3.20;;;20.80;68.20;;;;;;5054130;28;20191;-72
2023/06/29 03:17:56;;;;;;;3.23;3.03;;;20.80;68.20;;;;;;5036506;28;20291;-72
2023/06/29 03:20:23;;;;;;;4.00;3.30;;;20.80;68.40;;;;;;5045847;28;20312;-72
2023/06/29 03:22:50;;;;;;;4.80;3.23;;;20.80;68.40;;;;;;5036228;28;20243;-72
2023/06/29 03:25:18;;;;;;;4.37;3.33;;;20.80;68.40;;;;;;5052018;28;20233;-72
2023/06/29 03:27:45;;;;;;;4.43;3.17;;;20.80;68.70;;;;;;5057745;28;20261;-72
2023/06/29 03:30:12;;;;;;;5.07;3.90;;;20.70;68.70;;;;;;5036120;28;20214;-72
2023/06/29 03:32:39;;;;;;;4.33;3.87;;;20.70;68.90;;;;;;5035239;28;20206;-72
2023/06/29 03:35:07;;;;;;;5.33;3.33;;;20.70;69.10;;;;;;5033616;28;20328;-72
2023/06/29 03:37:34;;;;;;;4.03;3.53;;;20.70;69.10;;;;;;5034835;28;20305;-72
2023/06/29 03:40:01;;;;;;;4.03;3.63;;;20.70;69.10;;;;;;5035421;28;20207;-72
2023/06/29 03:42:29;;;;;;;4.20;3.30;;;20.70;69.00;;;;;;5034808;28;20214;-73
2023/06/29 03:44:56;;;;;;;4.07;3.63;;;20.80;69.20;;;;;;5034589;28;20202;-72
2023/06/29 03:47:22;;;;;;;3.37;3.03;;;20.80;69.30;;;;;;5035013;28;20236;-73
2023/06/29 03:49:49;;;;;;;4.27;3.47;;;20.70;69.30;;;;;;5031003;28;20693;-72
2023/06/29 03:52:16;;;;;;;3.80;3.40;;;20.80;69.50;;;;;;5020638;28;20701;-73
2023/06/29 03:54:43;;;;;;;3.50;3.20;;;20.70;69.50;;;;;;5026765;28;20195;-73
2023/06/29 03:57:10;;;;;;;3.57;3.20;;;20.80;69.50;;;;;;5015209;28;20229;-72
2023/06/29 03:59:38;;;;;;;3.67;3.37;;;20.80;69.50;;;;;;5015308;28;20234;-73
2023/06/29 04:02:05;;;;;;;3.70;3.30;;;20.80;69.60;;;;;;5017788;28;20221;-74
2023/06/29 04:04:32;;;;;;;3.70;3.37;;;20.80;69.50;;;;;;5020049;28;20231;-72
2023/06/29 04:06:59;;;;;;;4.00;3.57;;;20.80;69.40;;;;;;5025500;28;20226;-72
2023/06/29 04:09:26;;;;;;;4.53;3.70;;;20.80;69.50;;;;;;5021158;28;20233;-72
2023/06/29 04:11:53;;;;;;;4.43;3.70;;;20.80;69.40;;;;;;5025115;28;20203;-72
2023/06/29 04:14:19;;;;;;;6.00;3.60;;;20.80;70.10;;;;;;5017523;28;20186;-73
2023/06/29 04:16:47;;;;;;;4.40;3.47;;;20.80;69.30;;;;;;5028752;28;20219;-73
2023/06/29 04:19:14;;;;;;;3.80;3.40;;;20.80;69.30;;;;;;5017579;28;20233;-72
2023/06/29 04:21:41;;;;;;;4.00;3.60;;;20.80;69.40;;;;;;5029251;28;20199;-73
2023/06/29 04:24:08;;;;;;;4.00;3.33;;;20.80;69.50;;;;;;5028286;28;20214;-73
2023/06/29 04:26:38;;;;;;;4.50;3.27;;;20.80;69.60;;;;;;5022699;28;20199;-73
2023/06/29 04:29:06;;;;;;;9.57;4.23;;;20.80;69.70;;;;;;5032472;28;20203;-73
2023/06/29 04:31:32;;;;;;;7.27;3.90;;;20.80;70.10;;;;;;5017279;28;20234;-73
2023/06/29 04:34:02;;;;;;;9.00;4.07;;;20.80;70.20;;;;;;5015596;28;20191;-73
2023/06/29 04:36:29;;;;;;;7.23;3.90;;;20.80;70.50;;;;;;5024168;28;20203;-73
2023/06/29 04:38:56;;;;;;;5.00;3.87;;;20.80;70.60;;;;;;5022673;28;20227;-73
2023/06/29 04:41:30;;;;;;;4.03;3.67;;;20.90;71.60;;;;;;5024204;28;20199;-73
2023/06/29 04:43:57;;;;;;;3.87;3.43;;;20.90;70.90;;;;;;5032934;28;20191;-73
2023/06/29 04:46:24;;;;;;;4.13;3.40;;;20.90;71.10;;;;;;5013708;28;20195;-73
2023/06/29 04:48:51;;;;;;;3.50;3.20;;;21.00;71.60;;;;;;5013997;28;20226;-73
2023/06/29 04:51:19;;;;;;;7.17;3.53;;;21.00;71.60;;;;;;5013842;28;20227;-74
2023/06/29 04:53:46;;;;;;;4.33;3.53;;;21.10;71.50;;;;;;5013604;28;20199;-73
2023/06/29 04:56:13;;;;;;;7.67;4.77;;;21.10;71.10;;;;;;5014038;28;20610;-73
2023/06/29 04:58:40;;;;;;;8.70;4.03;;;21.20;71.50;;;;;;5013811;28;20222;-73
2023/06/29 05:01:07;;;;;;;6.03;3.93;;;21.20;71.50;;;;;;5013486;28;20211;-73
2023/06/29 05:03:35;;;;;;;10.17;5.03;;;21.30;71.60;;;;;;5013597;28;20211;-73
2023/06/29 05:06:02;;;;;;;8.63;4.47;;;21.30;71.70;;;;;;5012994;28;20226;-71
2023/06/29 05:08:30;;;;;;;8.63;4.87;;;21.40;72.20;;;;;;5013719;28;20199;-72
2023/06/29 05:10:57;;;;;;;7.90;4.53;;;21.40;73.20;;;;;;5013824;28;20231;-73
2023/06/29 05:13:24;;;;;;;6.43;4.30;;;21.50;72.10;;;;;;5013560;28;20317;-73
2023/06/29 05:15:51;;;;;;;10.03;5.10;;;21.50;71.80;;;;;;5012673;28;20656;-72
2023/06/29 05:18:17;;;;;;;8.33;4.93;;;21.60;71.90;;;;;;5013351;28;20227;-73
2023/06/29 05:20:44;;;;;;;9.80;4.90;;;21.70;72.00;;;;;;5019202;28;20716;-73
2023/06/29 05:23:11;;;;;;;10.80;5.40;;;21.70;71.70;;;;;;5029054;28;20210;-73
2023/06/29 05:25:40;;;;;;;7.77;4.40;;;21.80;71.50;;;;;;5028555;28;20268;-72
2023/06/29 05:28:07;;;;;;;5.43;3.80;;;21.90;71.10;;;;;;5037300;28;20199;-73
2023/06/29 05:30:34;;;;;;;4.07;3.50;;;22.00;71.60;;;;;;5032948;28;20228;-73
2023/06/29 05:33:01;;;;;;;3.77;2.97;;;22.10;71.00;;;;;;5032784;28;20214;-74
2023/06/29 05:35:28;;;;;;;3.53;3.23;;;22.20;70.70;;;;;;5022544;28;20215;-75
2023/06/29 05:37:55;;;;;;;6.23;3.20;;;22.30;70.00;;;;;;5013460;28;20246;-76
2023/06/29 05:40:22;;;;;;;5.47;3.37;;;22.50;69.40;;;;;;5013842;28;20229;-75
2023/06/29 05:42:50;;;;;;;3.80;2.90;;;22.60;68.30;;;;;;5019728;28;20219;-75
2023/06/29 05:45:17;;;;;;;5.17;3.07;;;22.70;67.20;;;;;;5006555;28;20666;-76
2023/06/29 05:47:44;;;;;;;4.23;3.83;;;22.80;66.70;;;;;;5013676;28;20316;-74
2023/06/29 05:50:11;;;;;;;3.90;3.53;;;22.90;66.80;;;;;;5023634;28;20230;-76
2023/06/29 05:52:38;;;;;;;6.17;3.37;;;23.10;66.70;;;;;;5051890;28;20270;-75
2023/06/29 05:55:05;;;;;;;4.13;3.10;;;23.20;66.40;;;;;;5052487;28;20237;-75
2023/06/29 05:57:32;;;;;;;3.50;3.20;;;23.30;65.70;;;;;;5044161;28;20305;-76
2023/06/29 06:00:04;;;;;;;5.13;3.30;;;23.30;65.50;;;;;;5034177;28;20574;-76
2023/06/29 06:02:32;;;;;;;4.63;3.60;;;23.40;65.70;;;;;;5034229;28;20592;-76
2023/06/29 06:04:59;;;;;;;4.60;2.70;;;23.50;65.70;;;;;;5015656;28;20194;-75
2023/06/29 06:07:29;;;;;;;3.63;3.20;;;23.50;65.80;;;;;;5033049;28;20218;-75
2023/06/29 06:09:56;;;;;;;4.30;3.10;;;23.60;65.20;;;;;;5033192;28;20234;-76
2023/06/29 06:12:23;;;;;;;3.40;3.10;;;23.70;65.10;;;;;;5033092;28;20207;-76
2023/06/29 06:14:50;;;;;;;4.73;3.03;;;23.80;65.40;;;;;;4990137;28;20578;-75
2023/06/29 06:17:18;;;;;;;4.80;3.50;;;23.80;65.10;;;;;;5032899;28;20230;-75
2023/06/29 06:19:45;;;;;;;3.40;3.10;;;23.90;65.40;;;;;;4979957;28;20227;-75
2023/06/29 06:22:12;;;;;;;5.33;3.10;;;24.00;65.40;;;;;;5013150;28;20231;-75
2023/06/29 06:24:39;;;;;;;5.10;2.80;;;24.10;65.50;;;;;;5016051;28;20285;-76
2023/06/29 06:27:07;;;;;;;3.23;2.90;;;24.20;66.10;;;;;;5032083;28;20562;-75
2023/06/29 06:29:33;;;;;;;4.80;2.87;;;24.30;66.00;;;;;;5031572;28;20257;-75
2023/06/29 06:32:00;;;;;;;3.27;2.97;;;24.40;65.60;;;;;;5032120;28;20684;-75
2023/06/29 06:34:30;;;;;;;4.17;2.80;;;24.50;65.20;;;;;;5016554;28;20303;-75
2023/06/29 06:36:58;;;;;;;3.63;3.17;;;24.70;65.80;;;;;;5032185;28;20598;-75
2023/06/29 06:39:25;;;;;;;6.03;2.90;;;24.80;64.80;;;;;;5032091;28;20693;-75
2023/06/29 06:41:51;;;;;;;4.23;3.10;;;24.90;64.30;;;;;;5031788;28;20206;-75
2023/06/29 06:44:19;;;;;;;3.47;2.87;;;25.00;64.00;;;;;;5032204;28;20214;-74
2023/06/29 06:46:46;;;;;;;3.60;2.90;;;25.10;64.00;;;;;;5011822;28;20199;-75
2023/06/29 06:49:13;;;;;;;3.87;2.80;;;25.20;63.20;;;;;;4977950;28;20226;-76
2023/06/29 06:51:41;;;;;;;2.93;2.60;;;25.30;63.70;;;;;;5013597;28;20203;-76
2023/06/29 06:54:08;;;;;;;4.10;2.70;;;25.40;63.00;;;;;;5013493;28;20249;-76
2023/06/29 06:56:37;;;;;;;3.73;2.93;;;25.40;63.50;;;;;;5008723;28;20199;-76
2023/06/29 06:59:07;;;;;;;4.33;3.00;;;25.50;62.70;;;;;;5014228;28;20684;-76
2023/06/29 07:01:33;;;;;;;3.57;2.70;;;25.50;62.40;;;;;;5017252;28;20270;-76
2023/06/29 07:04:00;;;;;;;3.67;2.57;;;25.60;62.50;;;;;;5017686;28;20203;-75
2023/06/29 07:06:30;;;;;;;3.87;2.83;;;25.60;62.50;;;;;;5017227;28;20589;-76
2023/06/29 07:08:59;;;;;;;4.07;2.53;;;25.70;62.30;;;;;;5017285;28;20227;-75
2023/06/29 07:11:26;;;;;;;6.53;2.90;;;25.80;61.40;;;;;;5016877;28;20206;-76
2023/06/29 07:13:53;;;;;;;5.10;2.60;;;25.80;61.10;;;;;;5017344;28;20729;-75
2023/06/29 07:16:21;;;;;;;6.50;2.50;;;25.80;61.10;;;;;;5020544;28;20298;-76
2023/06/29 07:19:03;;;;;;;3.10;2.50;;;25.90;61.10;;;;;;5028808;23;20574;-76
2023/06/29 07:21:30;;;;;;;4.23;2.90;;;26.00;60.80;;;;;;5008600;28;20768;-76
2023/06/29 07:23:56;;;;;;;5.30;2.90;;;26.10;60.50;;;;;;5016492;28;20246;-75
2023/06/29 07:26:25;;;;;;;3.70;2.87;;;26.10;60.00;;;;;;5016702;28;20203;-77
2023/06/29 07:28:52;;;;;;;3.20;2.73;;;26.20;59.50;;;;;;5016503;28;20804;-76
2023/06/29 07:31:19;;;;;;;2.93;2.47;;;26.40;60.70;;;;;;5016928;28;20213;-78
2023/06/29 07:33:45;;;;;;;6.13;3.07;;;26.50;60.00;;;;;;4998509;28;20575;-76
2023/06/29 07:36:12;;;;;;;4.50;2.80;;;26.70;60.20;;;;;;4999556;28;20807;-76
2023/06/29 07:38:39;;;;;;;4.57;2.70;;;26.80;59.10;;;;;;4998603;28;20219;-76
2023/06/29 07:41:08;;;;;;;5.73;2.90;;;26.90;58.80;;;;;;5018070;28;20279;-76
2023/06/29 07:43:36;;;;;;;4.83;2.90;;;27.00;57.60;;;;;;5003103;28;20204;-76
2023/06/29 07:46:03;;;;;;;3.33;2.43;;;27.10;58.70;;;;;;4996770;28;20237;-76
2023/06/29 07:48:32;;;;;;;2.90;2.60;;;27.20;58.40;;;;;;5013689;28;20203;-76
2023/06/29 07:50:59;;;;;;;5.47;2.97;;;27.30;57.70;;;;;;5016484;28;20212;-75
2023/06/29 07:53:26;;;;;;;4.37;2.80;;;27.40;56.40;;;;;;5016209;28;20215;-76
2023/06/29 07:55:52;;;;;;;6.00;2.87;;;27.40;56.00;;;;;;5016327;28;20199;-76
2023/06/29 07:58:19;;;;;;;6.40;2.90;;;27.40;56.40;;;;;;5015927;28;20232;-76
2023/06/29 08:00:47;;;;;;;4.63;2.70;;;27.40;57.60;;;;;;5016023;28;20228;-76
2023/06/29 08:03:14;;;;;;;3.47;3.00;;;27.50;57.30;;;;;;5016512;28;20210;-76
2023/06/29 08:05:41;;;;;;;6.23;2.70;;;27.50;56.80;;;;;;5016441;28;20209;-75
2023/06/29 08:08:08;;;;;;;5.00;2.70;;;27.60;56.70;;;;;;5016318;28;20359;-75
2023/06/29 08:10:35;;;;;;;3.30;3.00;;;27.70;56.70;;;;;;5015391;28;20328;-76
2023/06/29 08:13:02;;;;;;;3.77;2.80;;;27.70;56.30;;;;;;5015890;28;20653;-78
2023/06/29 08:15:29;;;;;;;4.33;2.90;;;27.80;56.90;;;;;;5015842;28;20885;-76
2023/06/29 08:17:57;;;;;;;4.63;2.50;;;27.90;56.40;;;;;;5007972;28;20230;-75
2023/06/29 08:20:24;;;;;;;3.80;2.40;;;28.00;56.20;;;;;;4996536;28;20214;-77
2023/06/29 08:22:51;;;;;;;3.13;2.60;;;28.10;56.00;;;;;;4996967;28;20809;-76
2023/06/29 08:25:18;;;;;;;5.13;2.80;;;28.20;55.20;;;;;;5015790;28;20315;-76
2023/06/29 08:27:44;;;;;;;4.73;2.83;;;28.20;54.40;;;;;;5015716;28;20695;-76
2023/06/29 08:30:13;;;;;;;4.23;2.90;;;28.30;53.00;;;;;;4981140;28;20233;-77
2023/06/29 08:32:39;;;;;;;4.83;2.60;;;28.40;53.20;;;;;;5015945;28;20205;-74
2023/06/29 08:35:09;;;;;;;3.80;2.40;;;28.50;53.50;;;;;;4997380;28;20215;-76
2023/06/29 08:37:36;;;;;;;3.17;2.47;;;28.60;53.30;;;;;;4998299;28;20191;-76
2023/06/29 08:40:04;;;;;;;6.30;2.70;;;28.60;53.30;;;;;;5015777;28;20206;-77
2023/06/29 08:42:31;;;;;;;3.43;2.50;;;28.70;53.50;;;;;;5015618;28;20227;-76
2023/06/29 08:44:58;;;;;;;3.10;2.40;;;28.80;52.70;;;;;;5015290;28;20205;-77
2023/06/29 08:47:26;;;;;;;4.77;2.50;;;28.80;53.10;;;;;;5015636;28;20209;-75
2023/06/29 08:49:57;;;;;;;5.97;2.60;;;28.80;52.70;;;;;;5015404;28;20206;-77
2023/06/29 08:52:27;;;;;;;3.53;2.57;;;29.00;52.70;;;;;;5015468;28;20201;-76
2023/06/29 08:54:54;;;;;;;3.63;2.40;;;29.10;52.70;;;;;;5015390;28;20230;-76
2023/06/29 08:57:21;;;;;;;4.93;3.07;;;29.20;51.40;;;;;;5015218;28;20203;-75
2023/06/29 08:59:51;;;;;;;5.90;2.93;;;29.30;50.10;;;;;;4997936;28;20601;-76
2023/06/29 09:02:18;;;;;;;4.70;2.50;;;29.40;50.10;;;;;;5015216;28;20661;-77
2023/06/29 09:04:45;;;;;;;7.87;2.60;;;29.50;50.40;;;;;;4997989;28;20199;-77
2023/06/29 09:07:14;;;;;;;3.23;2.77;;;29.60;50.20;;;;;;5014736;28;20728;-77
2023/06/29 09:09:43;;;;;;;3.20;2.53;;;29.70;49.00;;;;;;5015106;28;20600;-76
2023/06/29 09:12:10;;;;;;;3.50;2.50;;;29.70;48.90;;;;;;5014690;28;20277;-76
2023/06/29 09:14:44;;;;;;;3.40;2.20;;;29.70;47.90;;;;;;5015556;28;20217;-76
2023/06/29 09:17:14;;;;;;;4.97;2.80;;;29.70;48.40;;;;;;5014997;28;20237;-75
2023/06/29 09:19:43;;;;;;;3.03;2.50;;;29.80;49.60;;;;;;5014748;28;20679;-76
2023/06/29 09:22:10;;;;;;;2.63;2.40;;;29.90;49.40;;;;;;5014377;28;20203;-78
2023/06/29 09:24:39;;;;;;;4.40;2.60;;;29.90;49.50;;;;;;5014237;28;20218;-75
2023/06/29 09:27:10;;;;;;;3.57;2.37;;;29.90;48.10;;;;;;5015225;28;20195;-76
2023/06/29 09:29:38;;;;;;;5.10;2.40;;;30.00;47.10;;;;;;5014316;28;20290;-76
2023/06/29 09:32:06;;;;;;;2.73;2.50;;;29.90;47.50;;;;;;5014524;28;20230;-75
2023/06/29 09:34:33;;;;;;;3.67;2.30;;;29.90;46.50;;;;;;4997486;28;20210;-76
2023/06/29 09:37:00;;;;;;;6.40;2.87;;;29.90;46.30;;;;;;5014827;28;20572;-76
2023/06/29 09:39:27;;;;;;;3.77;2.37;;;29.90;45.80;;;;;;4997334;28;20726;-77
2023/06/29 09:41:56;;;;;;;2.67;2.30;;;29.90;45.70;;;;;;5014556;28;20262;-78
2023/06/29 09:44:31;;;;;;;2.80;2.50;;;29.80;46.00;;;;;;5132765;27;20662;-79
2023/06/29 09:47:05;;;;;;;3.07;2.50;;;29.80;46.80;;;;;;5133630;27;20199;-80
2023/06/29 09:49:32;;;;;;;4.07;2.40;;;29.80;45.80;;;;;;5133594;27;20197;-80
2023/06/29 09:52:03;;;;;;;5.60;2.70;;;29.80;46.80;;;;;;5132849;27;20230;-78
2023/06/29 09:54:34;;;;;;;2.10;1.90;;;29.70;45.40;;;;;;5135076;27;20191;-78
2023/06/29 09:57:03;;;;;;;3.60;2.63;;;29.70;45.40;;;;;;5133257;27;20222;-78
2023/06/29 09:59:32;;;;;;;2.80;2.30;;;29.70;45.60;;;;;;5132995;27;20202;-77
2023/06/29 10:01:59;;;;;;;3.20;2.10;;;29.70;45.80;;;;;;5132975;27;20203;-77
2023/06/29 10:04:27;;;;;;;2.90;2.60;;;29.80;46.00;;;;;;5150748;27;20268;-79
2023/06/29 10:07:01;;;;;;;3.00;2.10;;;29.80;45.00;;;;;;5154575;27;20187;-77
2023/06/29 10:09:28;;;;;;;3.53;2.50;;;29.90;44.80;;;;;;5155223;27;20171;-80
2023/06/29 10:11:57;;;;;;;4.70;2.50;;;29.90;44.80;;;;;;5149267;27;20195;-78
2023/06/29 10:14:23;;;;;;;4.40;2.60;;;30.00;44.60;;;;;;5131276;27;20206;-76
2023/06/29 10:16:53;;;;;;;3.80;2.60;;;29.90;44.80;;;;;;5131463;27;20325;-77
2023/06/29 10:19:21;;;;;;;3.27;2.47;;;29.90;45.80;;;;;;5131282;27;20192;-78
2023/06/29 10:21:52;;;;;;;3.37;2.30;;;30.00;45.70;;;;;;5131474;27;20197;-79
2023/06/29 10:24:23;;;;;;;3.13;2.50;;;30.10;46.00;;;;;;5131113;27;20318;-77
2023/06/29 10:26:50;;;;;;;3.87;2.37;;;30.20;45.50;;;;;;5130919;27;20188;-78
2023/06/29 10:29:17;;;;;;;2.87;2.40;;;30.20;45.90;;;;;;5131196;27;20722;-76
2023/06/29 10:31:49;;;;;;;3.87;2.50;;;30.30;46.30;;;;;;5130770;27;20215;-77
2023/06/29 10:34:19;;;;;;;2.53;2.30;;;30.30;46.10;;;;;;5131225;27;20191;-79
2023/06/29 10:36:48;;;;;;;2.50;2.30;;;30.30;46.30;;;;;;5130789;27;20219;-77
2023/06/29 10:39:41;;;;;;;2.70;2.30;;;30.30;46.00;;;;;;5094751;28;20248;-77
2023/06/29 10:42:12;;;;;;;2.73;2.50;;;30.30;46.80;;;;;;5115058;27;20195;-79
2023/06/29 10:44:40;;;;;;;3.33;2.37;;;30.30;47.60;;;;;;5130588;27;20213;-77
2023/06/29 10:47:25;;;;;;;4.60;2.60;;;30.30;47.60;;;;;;5120334;27;20207;-76
2023/06/29 10:50:17;;;;;;;4.13;2.40;;;30.30;47.80;;;;;;5127708;28;20226;-72
2023/06/29 10:52:48;;;;;;;6.03;2.80;;;30.30;46.10;;;;;;5121710;27;20194;-75
2023/06/29 10:55:15;;;;;;;3.90;2.60;;;30.30;46.30;;;;;;5098205;28;20228;-72
2023/06/29 10:57:46;;;;;;;3.20;2.60;;;30.30;46.70;;;;;;5095777;28;20227;-73
2023/06/29 11:00:13;;;;;;;4.60;2.77;;;30.30;46.50;;;;;;5111293;28;20204;-72
2023/06/29 11:02:41;;;;;;;4.17;2.60;;;30.30;47.40;;;;;;5104559;28;20219;-71
2023/06/29 11:05:12;;;;;;;5.33;2.60;;;30.30;47.10;;;;;;5094648;28;20758;-73
2023/06/29 11:07:39;;;;;;;2.63;2.43;;;30.30;46.40;;;;;;5095063;28;20259;-71
2023/06/29 11:10:06;;;;;;;3.77;2.50;;;30.30;46.20;;;;;;5095186;28;20196;-72
2023/06/29 11:12:33;;;;;;;2.80;2.50;;;30.20;45.70;;;;;;5112072;28;20620;-71
2023/06/29 11:15:00;;;;;;;3.80;2.60;;;30.20;46.20;;;;;;5118989;27;20213;-71
2023/06/29 11:17:27;;;;;;;4.70;2.43;;;30.20;46.10;;;;;;5120499;27;20222;-71
2023/06/29 11:19:54;;;;;;;2.73;2.47;;;30.30;46.40;;;;;;5087722;28;20695;-72
2023/06/29 11:22:22;;;;;;;3.63;2.30;;;30.30;46.50;;;;;;5105706;28;20291;-71
2023/06/29 11:24:49;;;;;;;3.37;2.30;;;30.40;46.30;;;;;;5106542;28;20671;-72
2023/06/29 11:27:17;;;;;;;3.70;2.33;;;30.50;46.40;;;;;;5115325;28;20194;-72
2023/06/29 11:29:44;;;;;;;3.50;2.47;;;30.40;45.60;;;;;;5114810;28;20204;-71
2023/06/29 11:32:11;;;;;;;4.50;2.43;;;30.50;45.80;;;;;;5114766;28;20226;-72
2023/06/29 11:34:38;;;;;;;4.43;2.87;;;30.40;45.00;;;;;;5095230;27;20200;-73
2023/06/29 11:37:05;;;;;;;5.67;2.73;;;30.50;45.90;;;;;;5094919;28;20228;-72
2023/06/29 11:39:33;;;;;;;3.67;2.70;;;30.50;45.50;;;;;;5114445;28;20672;-72
2023/06/29 11:42:02;;;;;;;4.17;2.80;;;30.30;45.10;;;;;;5112375;28;20211;-73
2023/06/29 11:44:29;;;;;;;3.20;2.50;;;30.20;45.50;;;;;;5094489;28;20220;-72
2023/06/29 11:46:57;;;;;;;4.03;2.47;;;30.20;45.70;;;;;;5094347;28;20204;-72
2023/06/29 11:49:25;;;;;;;3.07;2.57;;;30.20;45.50;;;;;;5093985;28;20234;-71
2023/06/29 11:51:52;;;;;;;4.07;2.50;;;30.30;45.80;;;;;;5094050;28;20306;-73
2023/06/29 11:54:19;;;;;;;4.27;2.40;;;30.20;45.00;;;;;;5110035;28;20200;-71
2023/06/29 11:56:48;;;;;;;4.03;2.40;;;30.10;45.00;;;;;;5114399;28;20203;-70
2023/06/29 11:59:15;;;;;;;4.13;2.57;;;30.10;45.70;;;;;;5114468;28;20212;-72
2023/06/29 12:01:44;;;;;;;5.17;2.97;;;30.20;45.30;;;;;;5112967;28;20227;-71
2023/06/29 12:04:12;;;;;;;4.67;2.70;;;30.20;44.90;;;;;;5099028;28;20220;-71
2023/06/29 12:06:50;;;;;;;3.63;2.20;;;30.20;45.40;;;;;;5092425;28;20264;-71
2023/06/29 12:09:17;;;;;;;5.60;2.50;;;30.30;45.80;;;;;;5093740;28;20200;-70
2023/06/29 12:11:44;;;;;;;3.63;2.37;;;30.30;45.10;;;;;;5093590;28;20239;-70
2023/06/29 12:14:12;;;;;;;3.73;2.33;;;30.30;44.30;;;;;;5101374;28;20215;-73
2023/06/29 12:16:40;;;;;;;4.20;3.00;;;30.30;43.80;;;;;;5108682;28;20196;-73
2023/06/29 12:19:11;;;;;;;2.50;2.30;;;30.10;43.20;;;;;;5106711;28;20249;-73
2023/06/29 12:21:38;;;;;;;3.10;2.33;;;30.00;44.00;;;;;;5093471;28;20208;-71
2023/06/29 12:24:05;;;;;;;3.03;2.47;;;30.10;44.70;;;;;;5101595;28;20299;-72
2023/06/29 12:26:31;;;;;;;3.93;2.33;;;30.30;44.80;;;;;;5113026;28;20206;-71
2023/06/29 12:28:58;;;;;;;3.80;2.50;;;30.40;43.40;;;;;;5093615;28;20200;-72
2023/06/29 12:31:27;;;;;;;4.07;2.40;;;30.60;45.30;;;;;;5093154;28;20224;-72
2023/06/29 12:33:55;;;;;;;4.30;2.37;;;30.80;44.80;;;;;;5104681;28;20206;-71
2023/06/29 12:36:22;;;;;;;4.33;2.30;;;31.10;45.60;;;;;;5113729;28;20200;-71
2023/06/29 12:38:49;;;;;;;3.60;2.30;;;31.30;45.10;;;;;;5113373;28;20278;-72
2023/06/29 12:41:15;;;;;;;6.20;2.63;;;31.50;43.70;;;;;;5113115;28;20229;-71
2023/06/29 12:43:42;;;;;;;5.37;2.67;;;31.50;42.30;;;;;;5099422;28;20667;-72
2023/06/29 12:46:11;;;;;;;4.70;2.30;;;31.60;42.50;;;;;;5107076;28;20203;-70
2023/06/29 12:48:39;;;;;;;3.13;2.63;;;31.70;42.80;;;;;;5113319;28;20305;-72